Terminal Aerodrome Forecast
Issued by NWS Twin Cities, MN

Home | Current Version | Previous Version | Text Only | Print | Product List | Glossary Off
Versions: 1 2 3 4 5 6 7 8 9 10 11 12 13 14 15 16 17 18 19 20 21 22

000
FTUS43 KMPX 240300 AAA
TAFEAU
TAF AMD
KEAU 240300Z 2403/2424 16004KT 6SM BR OVC009
     FM240600 17003KT 3SM BR OVC008
     FM241000 00000KT 1/4SM FG VV001
     FM241500 18003KT 6SM BR SCT015
     FM241700 20009KT P6SM BKN035=

USA.gov is the U.S. government's official web portal to all federal, state and local government web resources and services.